sensor_id;sensor_type;location;lat;lon;timestamp;temperature;humidity
79750;SHT31;69233;51.968;5.658;2023-07-16T00:00:12;21.7;52.1
79750;SHT31;69233;51.968;5.658;2023-07-16T00:02:42;21.7;50.7
79750;SHT31;69233;51.968;5.658;2023-07-16T00:05:12;21.6;51.1
79750;SHT31;69233;51.968;5.658;2023-07-16T00:07:41;21.6;50.7
79750;SHT31;69233;51.968;5.658;2023-07-16T00:10:11;21.6;50.0
79750;SHT31;69233;51.968;5.658;2023-07-16T00:12:41;21.6;50.2
79750;SHT31;69233;51.968;5.658;2023-07-16T00:15:11;21.5;52.5
79750;SHT31;69233;51.968;5.658;2023-07-16T00:17:40;21.5;50.2
79750;SHT31;69233;51.968;5.658;2023-07-16T00:20:12;21.5;50.7
79750;SHT31;69233;51.968;5.658;2023-07-16T00:22:42;21.5;50.0
79750;SHT31;69233;51.968;5.658;2023-07-16T00:25:14;21.5;51.7
79750;SHT31;69233;51.968;5.658;2023-07-16T00:27:43;21.5;50.9
79750;SHT31;69233;51.968;5.658;2023-07-16T00:30:13;21.5;51.7
79750;SHT31;69233;51.968;5.658;2023-07-16T00:32:42;21.4;50.9
79750;SHT31;69233;51.968;5.658;2023-07-16T00:35:14;21.4;51.4
79750;SHT31;69233;51.968;5.658;2023-07-16T00:37:43;21.4;51.6
79750;SHT31;69233;51.968;5.658;2023-07-16T00:40:13;21.4;51.6
79750;SHT31;69233;51.968;5.658;2023-07-16T00:42:43;21.3;52.1
79750;SHT31;69233;51.968;5.658;2023-07-16T00:45:13;21.3;52.7
79750;SHT31;69233;51.968;5.658;2023-07-16T00:47:44;21.2;53.7
79750;SHT31;69233;51.968;5.658;2023-07-16T00:50:14;21.2;54.3
79750;SHT31;69233;51.968;5.658;2023-07-16T00:52:44;21.2;54.7
79750;SHT31;69233;51.968;5.658;2023-07-16T00:55:14;21.2;55.6
79750;SHT31;69233;51.968;5.658;2023-07-16T00:57:45;21.1;56.0
79750;SHT31;69233;51.968;5.658;2023-07-16T01:00:16;21.1;55.4
79750;SHT31;69233;51.968;5.658;2023-07-16T01:02:45;21.1;55.2
79750;SHT31;69233;51.968;5.658;2023-07-16T01:05:15;21.1;55.1
79750;SHT31;69233;51.968;5.658;2023-07-16T01:07:52;21.1;55.3
79750;SHT31;69233;51.968;5.658;2023-07-16T01:10:26;21.1;54.4
79750;SHT31;69233;51.968;5.658;2023-07-16T01:12:57;21.1;54.7
79750;SHT31;69233;51.968;5.658;2023-07-16T01:15:27;21.1;54.0
79750;SHT31;69233;51.968;5.658;2023-07-16T01:17:57;21.1;54.2
79750;SHT31;69233;51.968;5.658;2023-07-16T01:20:27;21.0;54.1
79750;SHT31;69233;51.968;5.658;2023-07-16T01:23:31;21.0;54.1
79750;SHT31;69233;51.968;5.658;2023-07-16T01:26:26;21.0;54.0
79750;SHT31;69233;51.968;5.658;2023-07-16T01:29:30;21.0;53.8
79750;SHT31;69233;51.968;5.658;2023-07-16T01:32:04;20.9;54.0
79750;SHT31;69233;51.968;5.658;2023-07-16T01:34:38;20.9;54.5
79750;SHT31;69233;51.968;5.658;2023-07-16T01:37:08;20.9;54.5
79750;SHT31;69233;51.968;5.658;2023-07-16T01:39:39;20.9;54.4
79750;SHT31;69233;51.968;5.658;2023-07-16T01:42:09;20.8;54.4
79750;SHT31;69233;51.968;5.658;2023-07-16T01:44:39;20.8;54.2
79750;SHT31;69233;51.968;5.658;2023-07-16T01:47:15;20.8;54.6
79750;SHT31;69233;51.968;5.658;2023-07-16T01:49:47;20.7;54.4
79750;SHT31;69233;51.968;5.658;2023-07-16T01:52:17;20.7;54.8
79750;SHT31;69233;51.968;5.658;2023-07-16T01:54:46;20.7;54.9
79750;SHT31;69233;51.968;5.658;2023-07-16T01:57:16;20.6;54.7
79750;SHT31;69233;51.968;5.658;2023-07-16T01:59:46;20.6;55.2
79750;SHT31;69233;51.968;5.658;2023-07-16T02:02:15;20.6;55.1
79750;SHT31;69233;51.968;5.658;2023-07-16T02:04:46;20.5;55.2
79750;SHT31;69233;51.968;5.658;2023-07-16T02:07:18;20.5;55.0
79750;SHT31;69233;51.968;5.658;2023-07-16T02:09:47;20.5;55.3
79750;SHT31;69233;51.968;5.658;2023-07-16T02:12:17;20.5;55.9
79750;SHT31;69233;51.968;5.658;2023-07-16T02:14:46;20.4;55.0
79750;SHT31;69233;51.968;5.658;2023-07-16T02:17:16;20.4;55.2
79750;SHT31;69233;51.968;5.658;2023-07-16T02:19:45;20.4;55.5
79750;SHT31;69233;51.968;5.658;2023-07-16T02:22:15;20.4;55.4
79750;SHT31;69233;51.968;5.658;2023-07-16T02:24:44;20.3;55.3
79750;SHT31;69233;51.968;5.658;2023-07-16T02:27:14;20.3;55.6
79750;SHT31;69233;51.968;5.658;2023-07-16T02:29:44;20.3;55.5
79750;SHT31;69233;51.968;5.658;2023-07-16T02:32:13;20.3;55.8
79750;SHT31;69233;51.968;5.658;2023-07-16T02:34:44;20.2;56.0
79750;SHT31;69233;51.968;5.658;2023-07-16T02:37:14;20.2;55.7
79750;SHT31;69233;51.968;5.658;2023-07-16T02:39:45;20.2;55.4
79750;SHT31;69233;51.968;5.658;2023-07-16T02:42:15;20.2;55.7
79750;SHT31;69233;51.968;5.658;2023-07-16T02:44:44;20.1;55.6
79750;SHT31;69233;51.968;5.658;2023-07-16T02:47:14;20.1;56.3
79750;SHT31;69233;51.968;5.658;2023-07-16T02:49:46;20.1;56.2
79750;SHT31;69233;51.968;5.658;2023-07-16T02:52:15;20.1;56.7
79750;SHT31;69233;51.968;5.658;2023-07-16T02:54:44;20.1;56.5
79750;SHT31;69233;51.968;5.658;2023-07-16T02:57:16;20.0;56.4
79750;SHT31;69233;51.968;5.658;2023-07-16T02:59:46;20.0;56.7
79750;SHT31;69233;51.968;5.658;2023-07-16T03:02:15;20.0;56.9
79750;SHT31;69233;51.968;5.658;2023-07-16T03:04:45;20.0;57.1
79750;SHT31;69233;51.968;5.658;2023-07-16T03:07:14;20.0;57.0
79750;SHT31;69233;51.968;5.658;2023-07-16T03:09:44;19.9;57.6
79750;SHT31;69233;51.968;5.658;2023-07-16T03:12:13;19.9;58.1
79750;SHT31;69233;51.968;5.658;2023-07-16T03:14:42;19.9;57.7
79750;SHT31;69233;51.968;5.658;2023-07-16T03:17:12;19.9;57.9
79750;SHT31;69233;51.968;5.658;2023-07-16T03:19:41;19.9;58.2
79750;SHT31;69233;51.968;5.658;2023-07-16T03:22:13;19.9;58.6
79750;SHT31;69233;51.968;5.658;2023-07-16T03:24:43;19.9;59.2
79750;SHT31;69233;51.968;5.658;2023-07-16T03:27:12;19.8;59.5
79750;SHT31;69233;51.968;5.658;2023-07-16T03:29:43;19.8;59.6
79750;SHT31;69233;51.968;5.658;2023-07-16T03:32:13;19.8;59.7
79750;SHT31;69233;51.968;5.658;2023-07-16T03:34:43;19.7;59.1
79750;SHT31;69233;51.968;5.658;2023-07-16T03:37:12;19.7;58.8
79750;SHT31;69233;51.968;5.658;2023-07-16T03:39:42;19.7;59.0
79750;SHT31;69233;51.968;5.658;2023-07-16T03:42:11;19.7;59.2
79750;SHT31;69233;51.968;5.658;2023-07-16T03:44:40;19.6;58.9
79750;SHT31;69233;51.968;5.658;2023-07-16T03:47:10;19.6;59.0
79750;SHT31;69233;51.968;5.658;2023-07-16T03:49:39;19.6;58.0
79750;SHT31;69233;51.968;5.658;2023-07-16T03:52:09;19.6;58.1
79750;SHT31;69233;51.968;5.658;2023-07-16T03:54:38;19.6;57.9
79750;SHT31;69233;51.968;5.658;2023-07-16T03:57:10;19.5;57.9
79750;SHT31;69233;51.968;5.658;2023-07-16T03:59:39;19.5;57.8
79750;SHT31;69233;51.968;5.658;2023-07-16T04:02:09;19.5;58.1
79750;SHT31;69233;51.968;5.658;2023-07-16T04:04:38;19.5;58.1
79750;SHT31;69233;51.968;5.658;2023-07-16T04:07:08;19.5;57.9
79750;SHT31;69233;51.968;5.658;2023-07-16T04:09:39;19.5;57.9
79750;SHT31;69233;51.968;5.658;2023-07-16T04:12:11;19.4;58.3
79750;SHT31;69233;51.968;5.658;2023-07-16T04:14:40;19.4;58.7
79750;SHT31;69233;51.968;5.658;2023-07-16T04:17:10;19.4;58.3
79750;SHT31;69233;51.968;5.658;2023-07-16T04:19:39;19.4;59.0
79750;SHT31;69233;51.968;5.658;2023-07-16T04:22:09;19.4;59.0
79750;SHT31;69233;51.968;5.658;2023-07-16T04:24:38;19.4;59.1
79750;SHT31;69233;51.968;5.658;2023-07-16T04:27:08;19.5;59.5
79750;SHT31;69233;51.968;5.658;2023-07-16T04:29:38;19.5;59.7
79750;SHT31;69233;51.968;5.658;2023-07-16T04:32:09;19.5;59.7
79750;SHT31;69233;51.968;5.658;2023-07-16T04:34:39;19.5;59.7
79750;SHT31;69233;51.968;5.658;2023-07-16T04:37:08;19.5;59.5
79750;SHT31;69233;51.968;5.658;2023-07-16T04:39:38;19.5;59.4
79750;SHT31;69233;51.968;5.658;2023-07-16T04:42:07;19.5;58.8
79750;SHT31;69233;51.968;5.658;2023-07-16T04:44:37;19.6;59.1
79750;SHT31;69233;51.968;5.658;2023-07-16T04:47:06;19.6;58.6
79750;SHT31;69233;51.968;5.658;2023-07-16T04:49:36;19.6;58.8
79750;SHT31;69233;51.968;5.658;2023-07-16T04:52:06;19.6;58.8
79750;SHT31;69233;51.968;5.658;2023-07-16T04:54:37;19.6;58.6
79750;SHT31;69233;51.968;5.658;2023-07-16T04:57:07;19.6;57.7
79750;SHT31;69233;51.968;5.658;2023-07-16T04:59:36;19.6;57.7
79750;SHT31;69233;51.968;5.658;2023-07-16T05:02:07;19.6;57.7
79750;SHT31;69233;51.968;5.658;2023-07-16T05:04:36;19.6;57.7
79750;SHT31;69233;51.968;5.658;2023-07-16T05:07:06;19.6;57.4
79750;SHT31;69233;51.968;5.658;2023-07-16T05:09:36;19.6;56.8
79750;SHT31;69233;51.968;5.658;2023-07-16T05:12:06;19.6;56.6
79750;SHT31;69233;51.968;5.658;2023-07-16T05:14:46;19.6;56.8
79750;SHT31;69233;51.968;5.658;2023-07-16T05:17:16;19.6;57.3
79750;SHT31;69233;51.968;5.658;2023-07-16T05:19:45;19.6;56.4
79750;SHT31;69233;51.968;5.658;2023-07-16T05:22:16;19.6;57.0
79750;SHT31;69233;51.968;5.658;2023-07-16T05:24:46;19.6;56.3
79750;SHT31;69233;51.968;5.658;2023-07-16T05:27:15;19.6;56.6
79750;SHT31;69233;51.968;5.658;2023-07-16T05:29:45;19.6;56.6
79750;SHT31;69233;51.968;5.658;2023-07-16T05:32:15;19.6;56.3
79750;SHT31;69233;51.968;5.658;2023-07-16T05:34:44;19.6;55.8
79750;SHT31;69233;51.968;5.658;2023-07-16T05:37:14;19.6;56.1
79750;SHT31;69233;51.968;5.658;2023-07-16T05:39:44;19.6;56.4
79750;SHT31;69233;51.968;5.658;2023-07-16T05:42:15;19.6;55.8
79750;SHT31;69233;51.968;5.658;2023-07-16T05:44:47;19.6;55.8
79750;SHT31;69233;51.968;5.658;2023-07-16T05:47:17;19.6;55.3
79750;SHT31;69233;51.968;5.658;2023-07-16T05:49:47;19.6;55.3
79750;SHT31;69233;51.968;5.658;2023-07-16T05:52:19;19.6;55.3
79750;SHT31;69233;51.968;5.658;2023-07-16T05:54:49;19.7;55.6
79750;SHT31;69233;51.968;5.658;2023-07-16T05:57:18;19.7;55.9
79750;SHT31;69233;51.968;5.658;2023-07-16T05:59:48;19.7;55.9
79750;SHT31;69233;51.968;5.658;2023-07-16T06:02:17;19.7;55.5
79750;SHT31;69233;51.968;5.658;2023-07-16T06:04:47;19.7;55.8
79750;SHT31;69233;51.968;5.658;2023-07-16T06:07:16;19.8;55.4
79750;SHT31;69233;51.968;5.658;2023-07-16T06:09:46;19.8;55.3
79750;SHT31;69233;51.968;5.658;2023-07-16T06:12:17;19.8;55.8
79750;SHT31;69233;51.968;5.658;2023-07-16T06:14:47;19.8;55.5
79750;SHT31;69233;51.968;5.658;2023-07-16T06:17:17;19.9;56.0
79750;SHT31;69233;51.968;5.658;2023-07-16T06:19:46;19.9;56.2
79750;SHT31;69233;51.968;5.658;2023-07-16T06:22:18;19.9;55.2
79750;SHT31;69233;51.968;5.658;2023-07-16T06:24:47;20.0;55.3
79750;SHT31;69233;51.968;5.658;2023-07-16T06:27:17;20.0;55.9
79750;SHT31;69233;51.968;5.658;2023-07-16T06:29:46;20.1;56.2
79750;SHT31;69233;51.968;5.658;2023-07-16T06:32:16;20.1;55.3
79750;SHT31;69233;51.968;5.658;2023-07-16T06:34:45;20.1;54.7
79750;SHT31;69233;51.968;5.658;2023-07-16T06:37:17;20.2;55.2
79750;SHT31;69233;51.968;5.658;2023-07-16T06:39:46;20.2;55.5
79750;SHT31;69233;51.968;5.658;2023-07-16T06:42:16;20.3;55.3
79750;SHT31;69233;51.968;5.658;2023-07-16T06:44:45;20.3;55.5
79750;SHT31;69233;51.968;5.658;2023-07-16T06:47:15;20.4;54.7
79750;SHT31;69233;51.968;5.658;2023-07-16T06:49:44;20.5;54.4
79750;SHT31;69233;51.968;5.658;2023-07-16T06:52:20;20.5;55.8
79750;SHT31;69233;51.968;5.658;2023-07-16T06:54:51;20.6;55.0
79750;SHT31;69233;51.968;5.658;2023-07-16T06:57:21;20.6;54.9
79750;SHT31;69233;51.968;5.658;2023-07-16T06:59:50;20.7;53.9
79750;SHT31;69233;51.968;5.658;2023-07-16T07:02:20;20.8;54.9
79750;SHT31;69233;51.968;5.658;2023-07-16T07:04:50;20.9;53.8
79750;SHT31;69233;51.968;5.658;2023-07-16T07:07:19;21.0;54.0
79750;SHT31;69233;51.968;5.658;2023-07-16T07:09:51;21.0;53.6
79750;SHT31;69233;51.968;5.658;2023-07-16T07:12:20;21.1;55.0
79750;SHT31;69233;51.968;5.658;2023-07-16T07:14:50;21.2;53.5
79750;SHT31;69233;51.968;5.658;2023-07-16T07:17:19;21.3;53.5
79750;SHT31;69233;51.968;5.658;2023-07-16T07:19:51;21.4;53.8
79750;SHT31;69233;51.968;5.658;2023-07-16T07:22:20;21.5;52.8
79750;SHT31;69233;51.968;5.658;2023-07-16T07:24:49;21.6;52.4
79750;SHT31;69233;51.968;5.658;2023-07-16T07:27:19;21.6;52.6
79750;SHT31;69233;51.968;5.658;2023-07-16T07:29:48;21.7;52.1
79750;SHT31;69233;51.968;5.658;2023-07-16T07:32:20;21.8;54.9
79750;SHT31;69233;51.968;5.658;2023-07-16T07:34:50;21.9;53.6
79750;SHT31;69233;51.968;5.658;2023-07-16T07:37:19;22.0;52.6
79750;SHT31;69233;51.968;5.658;2023-07-16T07:39:52;22.1;52.4
79750;SHT31;69233;51.968;5.658;2023-07-16T07:42:21;22.2;51.5
79750;SHT31;69233;51.968;5.658;2023-07-16T07:44:52;22.4;51.5
79750;SHT31;69233;51.968;5.658;2023-07-16T07:47:21;22.5;51.2
79750;SHT31;69233;51.968;5.658;2023-07-16T07:49:52;22.5;50.6
79750;SHT31;69233;51.968;5.658;2023-07-16T07:52:22;22.6;50.7
79750;SHT31;69233;51.968;5.658;2023-07-16T07:54:51;22.7;50.5
79750;SHT31;69233;51.968;5.658;2023-07-16T07:57:21;22.7;52.3
79750;SHT31;69233;51.968;5.658;2023-07-16T07:59:51;22.8;52.1
79750;SHT31;69233;51.968;5.658;2023-07-16T08:02:25;22.9;49.9
79750;SHT31;69233;51.968;5.658;2023-07-16T08:04:55;22.9;49.8
79750;SHT31;69233;51.968;5.658;2023-07-16T08:07:24;23.0;51.2
79750;SHT31;69233;51.968;5.658;2023-07-16T08:09:55;23.0;49.3
79750;SHT31;69233;51.968;5.658;2023-07-16T08:12:24;23.1;49.8
79750;SHT31;69233;51.968;5.658;2023-07-16T08:14:54;23.1;50.2
79750;SHT31;69233;51.968;5.658;2023-07-16T08:17:23;23.2;49.8
79750;SHT31;69233;51.968;5.658;2023-07-16T08:19:53;23.2;50.2
79750;SHT31;69233;51.968;5.658;2023-07-16T08:22:22;23.3;49.0
79750;SHT31;69233;51.968;5.658;2023-07-16T08:24:52;23.4;50.0
79750;SHT31;69233;51.968;5.658;2023-07-16T08:27:22;23.5;49.5
79750;SHT31;69233;51.968;5.658;2023-07-16T08:29:51;23.5;49.9
79750;SHT31;69233;51.968;5.658;2023-07-16T08:32:21;23.6;48.8
79750;SHT31;69233;51.968;5.658;2023-07-16T08:34:51;23.7;47.7
79750;SHT31;69233;51.968;5.658;2023-07-16T08:37:20;23.8;46.9
79750;SHT31;69233;51.968;5.658;2023-07-16T08:39:52;23.9;46.9
79750;SHT31;69233;51.968;5.658;2023-07-16T08:42:23;24.0;48.0
79750;SHT31;69233;51.968;5.658;2023-07-16T08:44:53;24.0;46.5
79750;SHT31;69233;51.968;5.658;2023-07-16T08:47:25;24.0;46.4
79750;SHT31;69233;51.968;5.658;2023-07-16T08:49:55;24.1;46.9
79750;SHT31;69233;51.968;5.658;2023-07-16T08:52:27;24.1;47.0
79750;SHT31;69233;51.968;5.658;2023-07-16T08:54:56;24.1;46.6
79750;SHT31;69233;51.968;5.658;2023-07-16T08:57:26;24.1;47.6
79750;SHT31;69233;51.968;5.658;2023-07-16T08:59:59;24.2;46.5
79750;SHT31;69233;51.968;5.658;2023-07-16T09:02:32;24.2;46.8
79750;SHT31;69233;51.968;5.658;2023-07-16T09:05:04;24.3;47.2
79750;SHT31;69233;51.968;5.658;2023-07-16T09:07:35;24.3;46.6
79750;SHT31;69233;51.968;5.658;2023-07-16T09:10:06;24.4;47.0
79750;SHT31;69233;51.968;5.658;2023-07-16T09:12:35;24.4;46.0
79750;SHT31;69233;51.968;5.658;2023-07-16T09:15:06;24.4;45.3
79750;SHT31;69233;51.968;5.658;2023-07-16T09:17:36;24.4;45.5
79750;SHT31;69233;51.968;5.658;2023-07-16T09:20:06;24.4;45.5
79750;SHT31;69233;51.968;5.658;2023-07-16T09:22:36;24.4;45.5
79750;SHT31;69233;51.968;5.658;2023-07-16T09:25:06;24.4;45.5
79750;SHT31;69233;51.968;5.658;2023-07-16T09:27:36;24.3;45.9
79750;SHT31;69233;51.968;5.658;2023-07-16T09:30:07;24.3;45.9
79750;SHT31;69233;51.968;5.658;2023-07-16T09:32:41;24.2;45.4
79750;SHT31;69233;51.968;5.658;2023-07-16T09:35:13;24.2;45.5
79750;SHT31;69233;51.968;5.658;2023-07-16T09:37:43;24.1;45.5
79750;SHT31;69233;51.968;5.658;2023-07-16T09:40:13;24.1;46.2
79750;SHT31;69233;51.968;5.658;2023-07-16T09:42:43;24.1;47.0
79750;SHT31;69233;51.968;5.658;2023-07-16T09:45:17;24.1;47.9
79750;SHT31;69233;51.968;5.658;2023-07-16T09:47:47;24.1;47.2
79750;SHT31;69233;51.968;5.658;2023-07-16T09:50:17;24.1;47.8
79750;SHT31;69233;51.968;5.658;2023-07-16T09:52:47;24.2;46.9
79750;SHT31;69233;51.968;5.658;2023-07-16T09:55:18;24.3;46.7
79750;SHT31;69233;51.968;5.658;2023-07-16T09:57:52;24.3;47.5
79750;SHT31;69233;51.968;5.658;2023-07-16T10:00:24;24.4;46.7
79750;SHT31;69233;51.968;5.658;2023-07-16T10:02:55;24.4;46.0
79750;SHT31;69233;51.968;5.658;2023-07-16T10:05:26;24.5;47.5
79750;SHT31;69233;51.968;5.658;2023-07-16T10:07:58;24.5;45.9
79750;SHT31;69233;51.968;5.658;2023-07-16T10:10:44;24.5;46.6
79750;SHT31;69233;51.968;5.658;2023-07-16T10:13:18;24.5;46.5
79750;SHT31;69233;51.968;5.658;2023-07-16T10:15:54;24.6;46.8
79750;SHT31;69233;51.968;5.658;2023-07-16T10:18:29;24.6;47.1
79750;SHT31;69233;51.968;5.658;2023-07-16T10:21:02;24.6;46.6
79750;SHT31;69233;51.968;5.658;2023-07-16T10:23:42;24.6;45.7
79750;SHT31;69233;51.968;5.658;2023-07-16T10:26:14;24.6;45.4
79750;SHT31;69233;51.968;5.658;2023-07-16T10:28:44;24.6;45.4
79750;SHT31;69233;51.968;5.658;2023-07-16T10:31:21;24.5;45.8
79750;SHT31;69233;51.968;5.658;2023-07-16T10:34:01;24.5;46.5
79750;SHT31;69233;51.968;5.658;2023-07-16T10:36:39;24.4;45.9
79750;SHT31;69233;51.968;5.658;2023-07-16T10:39:10;24.4;46.4
79750;SHT31;69233;51.968;5.658;2023-07-16T10:41:40;24.4;46.1
79750;SHT31;69233;51.968;5.658;2023-07-16T10:44:13;24.4;47.0
79750;SHT31;69233;51.968;5.658;2023-07-16T10:46:43;24.4;48.2
79750;SHT31;69233;51.968;5.658;2023-07-16T10:49:13;24.4;47.2
79750;SHT31;69233;51.968;5.658;2023-07-16T10:51:42;24.4;45.9
79750;SHT31;69233;51.968;5.658;2023-07-16T10:54:12;24.4;46.4
79750;SHT31;69233;51.968;5.658;2023-07-16T10:56:42;24.4;45.9
79750;SHT31;69233;51.968;5.658;2023-07-16T10:59:15;24.4;46.0
79750;SHT31;69233;51.968;5.658;2023-07-16T11:01:47;24.3;45.8
79750;SHT31;69233;51.968;5.658;2023-07-16T11:04:16;24.3;45.7
79750;SHT31;69233;51.968;5.658;2023-07-16T11:06:46;24.2;46.5
79750;SHT31;69233;51.968;5.658;2023-07-16T11:09:15;24.1;46.8
79750;SHT31;69233;51.968;5.658;2023-07-16T11:11:45;24.1;47.1
79750;SHT31;69233;51.968;5.658;2023-07-16T11:14:14;24.1;47.4
79750;SHT31;69233;51.968;5.658;2023-07-16T11:16:44;24.1;47.5
79750;SHT31;69233;51.968;5.658;2023-07-16T11:19:14;24.1;48.1
79750;SHT31;69233;51.968;5.658;2023-07-16T11:21:46;24.1;47.6
79750;SHT31;69233;51.968;5.658;2023-07-16T11:24:15;24.1;47.2
79750;SHT31;69233;51.968;5.658;2023-07-16T11:26:51;24.1;48.1
79750;SHT31;69233;51.968;5.658;2023-07-16T11:29:21;24.1;48.1
79750;SHT31;69233;51.968;5.658;2023-07-16T11:31:51;24.1;47.0
79750;SHT31;69233;51.968;5.658;2023-07-16T11:34:22;24.1;46.8
79750;SHT31;69233;51.968;5.658;2023-07-16T11:36:51;24.2;49.2
79750;SHT31;69233;51.968;5.658;2023-07-16T11:39:24;24.3;49.3
79750;SHT31;69233;51.968;5.658;2023-07-16T11:41:57;24.4;50.8
79750;SHT31;69233;51.968;5.658;2023-07-16T11:44:31;24.5;48.8
79750;SHT31;69233;51.968;5.658;2023-07-16T11:47:01;24.7;48.1
79750;SHT31;69233;51.968;5.658;2023-07-16T11:49:33;24.8;47.6
79750;SHT31;69233;51.968;5.658;2023-07-16T11:52:03;24.9;47.8
79750;SHT31;69233;51.968;5.658;2023-07-16T11:54:32;25.0;47.5
79750;SHT31;69233;51.968;5.658;2023-07-16T11:57:02;25.0;47.1
79750;SHT31;69233;51.968;5.658;2023-07-16T11:59:32;25.1;46.7
79750;SHT31;69233;51.968;5.658;2023-07-16T12:02:01;25.2;46.7
79750;SHT31;69233;51.968;5.658;2023-07-16T12:04:31;25.2;45.5
79750;SHT31;69233;51.968;5.658;2023-07-16T12:07:00;25.2;46.8
79750;SHT31;69233;51.968;5.658;2023-07-16T12:09:30;25.3;46.1
79750;SHT31;69233;51.968;5.658;2023-07-16T12:12:00;25.3;46.1
79750;SHT31;69233;51.968;5.658;2023-07-16T12:14:32;25.3;45.8
79750;SHT31;69233;51.968;5.658;2023-07-16T12:17:01;25.3;47.4
79750;SHT31;69233;51.968;5.658;2023-07-16T12:19:31;25.2;48.1
79750;SHT31;69233;51.968;5.658;2023-07-16T12:22:01;25.1;49.3
79750;SHT31;69233;51.968;5.658;2023-07-16T12:24:31;25.1;54.1
79750;SHT31;69233;51.968;5.658;2023-07-16T12:27:00;25.3;51.5
79750;SHT31;69233;51.968;5.658;2023-07-16T12:29:30;25.9;49.8
79750;SHT31;69233;51.968;5.658;2023-07-16T12:32:01;26.7;48.0
79750;SHT31;69233;51.968;5.658;2023-07-16T12:34:31;27.3;44.4
79750;SHT31;69233;51.968;5.658;2023-07-16T12:37:00;27.7;42.8
79750;SHT31;69233;51.968;5.658;2023-07-16T12:39:30;27.9;43.8
79750;SHT31;69233;51.968;5.658;2023-07-16T12:41:59;28.2;44.0
79750;SHT31;69233;51.968;5.658;2023-07-16T12:44:29;28.4;41.3
79750;SHT31;69233;51.968;5.658;2023-07-16T12:46:59;28.4;41.0
79750;SHT31;69233;51.968;5.658;2023-07-16T12:49:28;28.4;41.1
79750;SHT31;69233;51.968;5.658;2023-07-16T12:51:58;28.4;41.7
79750;SHT31;69233;51.968;5.658;2023-07-16T12:54:27;28.4;40.7
79750;SHT31;69233;51.968;5.658;2023-07-16T12:56:57;28.4;40.8
79750;SHT31;69233;51.968;5.658;2023-07-16T12:59:26;28.3;40.8
79750;SHT31;69233;51.968;5.658;2023-07-16T13:01:56;28.2;41.2
79750;SHT31;69233;51.968;5.658;2023-07-16T13:04:25;28.0;41.6
79750;SHT31;69233;51.968;5.658;2023-07-16T13:06:55;27.8;41.4
79750;SHT31;69233;51.968;5.658;2023-07-16T13:09:24;27.5;44.6
79750;SHT31;69233;51.968;5.658;2023-07-16T13:11:54;27.2;44.3
79750;SHT31;69233;51.968;5.658;2023-07-16T13:14:24;27.1;45.4
79750;SHT31;69233;51.968;5.658;2023-07-16T13:16:53;27.0;46.8
79750;SHT31;69233;51.968;5.658;2023-07-16T13:19:23;27.1;47.5
79750;SHT31;69233;51.968;5.658;2023-07-16T13:21:53;27.5;44.8
79750;SHT31;69233;51.968;5.658;2023-07-16T13:24:22;27.9;45.3
79750;SHT31;69233;51.968;5.658;2023-07-16T13:26:53;28.3;42.5
79750;SHT31;69233;51.968;5.658;2023-07-16T13:29:22;28.6;43.8
79750;SHT31;69233;51.968;5.658;2023-07-16T13:31:52;28.9;43.5
79750;SHT31;69233;51.968;5.658;2023-07-16T13:34:21;29.2;41.4
79750;SHT31;69233;51.968;5.658;2023-07-16T13:36:51;29.6;40.0
79750;SHT31;69233;51.968;5.658;2023-07-16T13:39:20;29.9;39.6
79750;SHT31;69233;51.968;5.658;2023-07-16T13:41:50;30.1;38.3
79750;SHT31;69233;51.968;5.658;2023-07-16T13:44:19;30.4;38.0
79750;SHT31;69233;51.968;5.658;2023-07-16T13:46:48;30.6;38.0
79750;SHT31;69233;51.968;5.658;2023-07-16T13:49:18;30.7;37.5
79750;SHT31;69233;51.968;5.658;2023-07-16T13:51:47;30.8;35.4
79750;SHT31;69233;51.968;5.658;2023-07-16T13:54:17;30.9;35.0
79750;SHT31;69233;51.968;5.658;2023-07-16T13:56:47;31.0;35.6
79750;SHT31;69233;51.968;5.658;2023-07-16T13:59:17;31.0;35.6
79750;SHT31;69233;51.968;5.658;2023-07-16T14:01:46;31.0;37.0
79750;SHT31;69233;51.968;5.658;2023-07-16T14:04:18;31.0;37.5
79750;SHT31;69233;51.968;5.658;2023-07-16T14:06:47;31.1;34.9
79750;SHT31;69233;51.968;5.658;2023-07-16T14:09:17;31.1;35.4
79750;SHT31;69233;51.968;5.658;2023-07-16T14:11:46;31.1;34.6
79750;SHT31;69233;51.968;5.658;2023-07-16T14:14:17;31.0;33.9
79750;SHT31;69233;51.968;5.658;2023-07-16T14:16:47;30.8;35.8
79750;SHT31;69233;51.968;5.658;2023-07-16T14:19:16;30.7;39.3
79750;SHT31;69233;51.968;5.658;2023-07-16T14:21:46;30.7;35.1
79750;SHT31;69233;51.968;5.658;2023-07-16T14:24:15;30.7;34.3
79750;SHT31;69233;51.968;5.658;2023-07-16T14:26:45;30.7;33.9
79750;SHT31;69233;51.968;5.658;2023-07-16T14:29:14;30.5;34.3
79750;SHT31;69233;51.968;5.658;2023-07-16T14:31:44;30.1;35.0
79750;SHT31;69233;51.968;5.658;2023-07-16T14:34:14;29.8;35.4
79750;SHT31;69233;51.968;5.658;2023-07-16T14:36:43;29.4;36.3
79750;SHT31;69233;51.968;5.658;2023-07-16T14:39:13;29.0;37.0
79750;SHT31;69233;51.968;5.658;2023-07-16T14:41:43;28.7;38.5
79750;SHT31;69233;51.968;5.658;2023-07-16T14:44:12;28.4;39.9
79750;SHT31;69233;51.968;5.658;2023-07-16T14:46:42;28.1;38.6
79750;SHT31;69233;51.968;5.658;2023-07-16T14:49:12;27.9;39.9
79750;SHT31;69233;51.968;5.658;2023-07-16T14:51:41;27.8;40.9
79750;SHT31;69233;51.968;5.658;2023-07-16T14:54:11;27.7;40.2
79750;SHT31;69233;51.968;5.658;2023-07-16T14:56:40;27.6;41.1
79750;SHT31;69233;51.968;5.658;2023-07-16T14:59:10;27.6;41.4
79750;SHT31;69233;51.968;5.658;2023-07-16T15:01:39;27.5;42.2
79750;SHT31;69233;51.968;5.658;2023-07-16T15:04:09;27.5;43.4
79750;SHT31;69233;51.968;5.658;2023-07-16T15:06:38;27.6;42.4
79750;SHT31;69233;51.968;5.658;2023-07-16T15:09:08;27.8;44.2
79750;SHT31;69233;51.968;5.658;2023-07-16T15:11:39;28.1;40.8
79750;SHT31;69233;51.968;5.658;2023-07-16T15:14:10;28.3;40.5
79750;SHT31;69233;51.968;5.658;2023-07-16T15:16:40;28.5;37.8
79750;SHT31;69233;51.968;5.658;2023-07-16T15:19:10;28.5;39.4
79750;SHT31;69233;51.968;5.658;2023-07-16T15:21:41;28.5;37.4
79750;SHT31;69233;51.968;5.658;2023-07-16T15:24:11;28.5;38.2
79750;SHT31;69233;51.968;5.658;2023-07-16T15:26:40;28.6;37.7
79750;SHT31;69233;51.968;5.658;2023-07-16T15:29:10;28.6;38.7
79750;SHT31;69233;51.968;5.658;2023-07-16T15:31:39;28.7;39.3
79750;SHT31;69233;51.968;5.658;2023-07-16T15:34:09;28.7;37.6
79750;SHT31;69233;51.968;5.658;2023-07-16T15:36:39;28.8;37.2
79750;SHT31;69233;51.968;5.658;2023-07-16T15:39:08;28.8;38.0
79750;SHT31;69233;51.968;5.658;2023-07-16T15:41:38;28.7;37.7
79750;SHT31;69233;51.968;5.658;2023-07-16T15:44:07;28.6;39.2
79750;SHT31;69233;51.968;5.658;2023-07-16T15:46:36;28.5;38.7
79750;SHT31;69233;51.968;5.658;2023-07-16T15:49:07;28.2;39.5
79750;SHT31;69233;51.968;5.658;2023-07-16T15:51:38;28.0;40.4
79750;SHT31;69233;51.968;5.658;2023-07-16T15:54:08;27.8;40.2
79750;SHT31;69233;51.968;5.658;2023-07-16T15:56:38;27.6;41.1
79750;SHT31;69233;51.968;5.658;2023-07-16T15:59:08;27.5;41.7
79750;SHT31;69233;51.968;5.658;2023-07-16T16:01:38;27.3;42.1
79750;SHT31;69233;51.968;5.658;2023-07-16T16:04:08;27.2;42.1
79750;SHT31;69233;51.968;5.658;2023-07-16T16:06:38;27.1;41.7
79750;SHT31;69233;51.968;5.658;2023-07-16T16:09:07;27.0;41.5
79750;SHT31;69233;51.968;5.658;2023-07-16T16:11:37;26.9;42.4
79750;SHT31;69233;51.968;5.658;2023-07-16T16:14:06;26.8;42.8
79750;SHT31;69233;51.968;5.658;2023-07-16T16:16:37;26.7;43.4
79750;SHT31;69233;51.968;5.658;2023-07-16T16:19:06;26.6;42.6
79750;SHT31;69233;51.968;5.658;2023-07-16T16:21:36;26.5;42.9